SEATTLE-TACOMA INTL

KSEA (SEA)
Seattle, Washington
Towered

Vatsim Metar:
KSEA 291853Z 03005KT 10SM CLR 02/M07 A3050 RMK AO2 SLP339 T00221072

No ATC Online

Traffic

Inbound:
Ident
Type
Name
ETA
Phase
ASA785
A21N
Scott Schnaible KSEA
Taxiing In
ASA543
B738
Daniel Gates KDCA
19:51 Z
Cruse
DAL014J
A320
Giorgio
Boarding
DAL9969
B738
juwan Christie MWCR
Boarding
CXA578
B737
Scott Wallace
21:30 Z
Cruse

Outbound:
Ident
Type
Name
Destination
Phase
ASA921
B737
Aaron Purcell KBHM
KATL
Climb
ASA200
B737
TyRell Faw KBIL
KSAN
Climb